Time;durP1;ratioP1;P1;durP2;ratioP2;P2;SDS_P1;SDS_P2;PMS_P1;PMS_P2;Temp;Humidity;BMP_temperature;BMP_pressure;BME280_temperature;BME280_humidity;BME280_pressure;Samples;Min_cycle;Max_cycle;Signal;HPM_P1;HPM_P2
2022/08/07 00:00:14;;;;;;;14.90;10.10;;;;;;;12.14;85.42;102761.75;5009350;28;20577;-71
2022/08/07 00:02:40;;;;;;;13.07;10.47;;;;;;;11.99;86.04;102761.94;5011943;28;20644;-72
2022/08/07 00:05:05;;;;;;;13.87;10.70;;;;;;;11.95;86.24;102764.31;5000083;28;20192;-72
2022/08/07 00:07:31;;;;;;;13.87;9.97;;;;;;;11.94;86.26;102771.13;4995003;28;20191;-71
2022/08/07 00:09:56;;;;;;;13.23;9.83;;;;;;;12.02;84.99;102766.34;5002680;28;20183;-70
2022/08/07 00:12:22;;;;;;;14.63;10.50;;;;;;;11.92;85.18;102761.59;4994674;28;20290;-72
2022/08/07 00:14:47;;;;;;;13.23;10.27;;;;;;;11.97;85.62;102770.38;5003320;28;20215;-72
2022/08/07 00:17:13;;;;;;;13.50;10.37;;;;;;;11.92;85.36;102764.19;4993087;28;20191;-72
2022/08/07 00:19:38;;;;;;;13.27;10.13;;;;;;;11.90;85.12;102766.66;4991741;28;20307;-71
2022/08/07 00:22:04;;;;;;;12.13;9.93;;;;;;;11.76;85.18;102760.03;5008118;28;20239;-71
2022/08/07 00:24:29;;;;;;;13.10;10.33;;;;;;;11.79;85.19;102749.03;4993258;28;20195;-72
2022/08/07 00:26:54;;;;;;;14.67;10.67;;;;;;;11.81;84.94;102748.31;4992920;28;20184;-72
2022/08/07 00:29:24;;;;;;;14.30;10.37;;;;;;;11.72;84.99;102753.03;5010928;28;20557;-71
2022/08/07 00:31:53;;;;;;;13.63;10.67;;;;;;;11.69;86.13;102747.75;5006185;28;20239;-71
2022/08/07 00:34:19;;;;;;;14.57;11.07;;;;;;;11.66;85.95;102747.59;4994816;28;20195;-71
2022/08/07 00:36:45;;;;;;;14.33;10.60;;;;;;;11.62;86.35;102747.41;4975378;28;20290;-72
2022/08/07 00:39:11;;;;;;;14.10;10.77;;;;;;;11.65;85.43;102750.09;5007644;28;20325;-70
2022/08/07 00:41:38;;;;;;;15.20;11.30;;;;;;;11.65;84.74;102751.00;5001915;28;20219;-71
2022/08/07 00:44:04;;;;;;;18.33;10.73;;;;;;;11.57;85.51;102752.28;5001575;28;20194;-69
2022/08/07 00:46:30;;;;;;;16.33;11.90;;;;;;;11.52;86.64;102750.34;4994841;28;20279;-72
2022/08/07 00:49:00;;;;;;;14.57;11.50;;;;;;;11.45;86.45;102748.28;4992584;28;20188;-72
2022/08/07 00:51:28;;;;;;;19.20;11.30;;;;;;;11.43;86.56;102755.03;4992794;28;20207;-72
2022/08/07 00:53:54;;;;;;;15.83;11.50;;;;;;;11.51;85.60;102746.88;5007316;28;20215;-71
2022/08/07 00:56:21;;;;;;;15.77;11.50;;;;;;;11.44;86.77;102742.28;4992522;28;20246;-71
2022/08/07 00:58:46;;;;;;;14.03;11.10;;;;;;;11.45;86.59;102740.59;5010462;28;20218;-72
2022/08/07 01:01:12;;;;;;;14.20;11.67;;;;;;;11.42;86.75;102745.56;4990975;28;20299;-70
2022/08/07 01:03:38;;;;;;;17.13;11.83;;;;;;;11.37;87.83;102737.66;4991123;28;20176;-71
2022/08/07 01:06:04;;;;;;;16.07;11.93;;;;;;;11.33;87.21;102738.31;4991138;28;20194;-71
2022/08/07 01:08:30;;;;;;;16.63;10.97;;;;;;;11.39;87.31;102751.44;5009674;28;20241;-72
2022/08/07 01:10:56;;;;;;;15.80;11.07;;;;;;;11.46;87.53;102744.91;4994080;28;20196;-69
2022/08/07 01:13:21;;;;;;;16.70;11.93;;;;;;;11.44;87.67;102742.28;4995199;28;20195;-71
2022/08/07 01:15:50;;;;;;;14.77;11.00;;;;;;;11.40;87.44;102740.38;5007371;28;20287;-70
2022/08/07 01:18:15;;;;;;;14.20;10.43;;;;;;;11.32;87.58;102741.72;5009978;28;20195;-72
2022/08/07 01:20:47;;;;;;;15.20;11.23;;;;;;;11.29;89.05;102739.00;4991202;28;20188;-71
2022/08/07 01:23:14;;;;;;;14.37;11.33;;;;;;;11.24;88.85;102752.44;5001194;28;20183;-72
2022/08/07 01:25:40;;;;;;;14.00;10.37;;;;;;;11.22;89.58;102749.78;4998896;28;20199;-70
2022/08/07 01:28:06;;;;;;;15.07;10.77;;;;;;;11.25;89.62;102746.47;4995724;28;20192;-71
2022/08/07 01:30:31;;;;;;;13.57;9.97;;;;;;;11.19;88.63;102739.38;5011062;28;20675;-71
2022/08/07 01:32:58;;;;;;;13.63;10.30;;;;;;;11.18;88.70;102745.31;5009920;28;20203;-71
2022/08/07 01:35:24;;;;;;;13.77;9.93;;;;;;;11.16;88.43;102740.91;5010126;28;20198;-71
2022/08/07 01:37:51;;;;;;;17.33;11.07;;;;;;;11.09;88.09;102744.88;5009815;28;20182;-72
2022/08/07 01:40:20;;;;;;;12.73;9.83;;;;;;;11.10;88.10;102746.63;5009755;28;20203;-72
2022/08/07 01:42:59;;;;;;;13.67;10.40;;;;;;;11.18;88.59;102740.19;5005891;28;20249;-70
2022/08/07 01:45:26;;;;;;;14.70;10.70;;;;;;;11.19;88.69;102736.81;5009340;28;20817;-72
2022/08/07 01:47:56;;;;;;;16.87;12.33;;;;;;;11.17;89.36;102740.09;5002852;28;20191;-72
2022/08/07 01:50:22;;;;;;;16.30;11.70;;;;;;;11.10;89.02;102736.38;5009880;28;20175;-72
2022/08/07 01:52:51;;;;;;;16.80;12.07;;;;;;;11.08;88.42;102735.44;5001119;28;20211;-72
2022/08/07 01:55:19;;;;;;;16.80;12.27;;;;;;;11.02;88.23;102724.00;5006536;28;20198;-71
2022/08/07 01:57:46;;;;;;;17.37;12.63;;;;;;;10.99;88.75;102736.66;5006836;28;20195;-72
2022/08/07 02:00:12;;;;;;;18.57;13.03;;;;;;;10.91;89.61;102731.19;5000998;28;20699;-71
2022/08/07 02:02:45;;;;;;;17.37;12.37;;;;;;;10.91;89.86;102730.28;4993339;28;20605;-72
2022/08/07 02:05:17;;;;;;;17.27;12.90;;;;;;;10.85;89.76;102732.56;4993205;28;20183;-71
2022/08/07 02:07:49;;;;;;;18.77;13.40;;;;;;;10.87;90.04;102729.25;4999467;28;20230;-71
2022/08/07 02:10:18;;;;;;;19.57;14.13;;;;;;;10.94;91.03;102725.31;5001888;28;20187;-70
2022/08/07 02:12:46;;;;;;;17.93;12.50;;;;;;;10.89;89.84;102730.25;4987402;28;20200;-71
2022/08/07 02:15:23;;;;;;;15.47;12.00;;;;;;;10.85;90.04;102730.00;5005843;28;20213;-71
2022/08/07 02:17:51;;;;;;;16.20;12.33;;;;;;;10.85;90.21;102728.31;4998089;28;20191;-72
2022/08/07 02:20:18;;;;;;;20.40;12.27;;;;;;;10.84;90.33;102718.88;4994554;28;20250;-72
2022/08/07 02:22:45;;;;;;;18.00;12.60;;;;;;;10.83;90.18;102723.94;4989552;28;20212;-72
2022/08/07 02:25:14;;;;;;;19.07;12.20;;;;;;;10.70;90.22;102716.44;5008232;28;20237;-71
2022/08/07 02:27:41;;;;;;;18.10;11.93;;;;;;;10.63;90.52;102720.41;4986378;28;20188;-72
2022/08/07 02:30:08;;;;;;;18.10;11.93;;;;;;;10.67;90.31;102726.53;4988984;28;20172;-70
2022/08/07 02:32:36;;;;;;;18.60;12.17;;;;;;;10.55;91.06;102723.41;5009347;28;20195;-72
2022/08/07 02:35:04;;;;;;;17.20;12.83;;;;;;;10.56;89.88;102715.75;5009337;28;20179;-70
2022/08/07 02:37:32;;;;;;;14.97;11.43;;;;;;;10.43;89.36;102715.09;5000354;28;20799;-72
2022/08/07 02:40:00;;;;;;;16.27;11.57;;;;;;;10.42;88.85;102718.47;4987690;28;20634;-72
2022/08/07 02:42:31;;;;;;;16.60;11.80;;;;;;;10.38;88.75;102717.44;5004264;28;20214;-71
2022/08/07 02:45:00;;;;;;;16.00;11.63;;;;;;;10.38;89.05;102725.13;4992795;28;20222;-70
2022/08/07 02:47:28;;;;;;;15.43;12.17;;;;;;;10.36;88.99;102719.03;4989074;28;20180;-71
2022/08/07 02:50:04;;;;;;;17.30;12.20;;;;;;;10.32;89.05;102716.25;4989129;28;20281;-72
2022/08/07 02:53:05;;;;;;;16.53;11.20;;;;;;;10.29;89.12;102722.09;4989403;28;20723;-71
2022/08/07 02:55:36;;;;;;;16.37;11.33;;;;;;;10.24;89.87;102722.66;4992560;28;20191;-70
2022/08/07 02:58:05;;;;;;;14.70;11.50;;;;;;;10.25;90.13;102717.63;4992490;28;20590;-71
2022/08/07 03:00:33;;;;;;;17.40;13.03;;;;;;;10.17;90.22;102716.34;4988865;28;20215;-72
2022/08/07 03:03:01;;;;;;;16.97;12.83;;;;;;;10.15;90.30;102723.06;4973045;28;21013;-72
2022/08/07 03:05:28;;;;;;;16.43;11.33;;;;;;;10.12;91.02;102716.91;5005455;28;20187;-72
2022/08/07 03:07:55;;;;;;;17.03;11.70;;;;;;;10.14;89.68;102717.88;4990154;28;20191;-71
2022/08/07 03:10:21;;;;;;;14.27;11.53;;;;;;;10.10;90.39;102709.13;5005219;28;20663;-71
2022/08/07 03:12:48;;;;;;;15.50;11.40;;;;;;;10.07;90.38;102708.09;4976583;28;20207;-70
2022/08/07 03:15:16;;;;;;;14.53;10.77;;;;;;;10.00;89.95;102709.44;5020013;28;20187;-70
2022/08/07 03:17:43;;;;;;;16.17;12.23;;;;;;;10.08;90.17;102708.19;4991998;28;20826;-70
2022/08/07 03:20:10;;;;;;;14.83;11.60;;;;;;;10.03;90.46;102709.59;5008359;28;20607;-70
2022/08/07 03:22:39;;;;;;;15.97;11.47;;;;;;;10.02;90.31;102712.06;5008334;28;20203;-70
2022/08/07 03:25:05;;;;;;;15.60;11.53;;;;;;;9.92;90.45;102712.41;5008411;28;20278;-70
2022/08/07 03:27:39;;;;;;;15.00;11.50;;;;;;;9.97;90.69;102710.97;5008417;28;20541;-70
2022/08/07 03:30:06;;;;;;;17.50;12.03;;;;;;;9.87;90.69;102712.16;5003145;28;20226;-70
2022/08/07 03:32:37;;;;;;;15.97;11.63;;;;;;;9.99;90.52;102705.13;4995288;28;20207;-69
2022/08/07 03:35:08;;;;;;;15.20;11.33;;;;;;;10.03;90.26;102704.47;4991484;28;20274;-70
2022/08/07 03:37:36;;;;;;;18.40;12.63;;;;;;;10.09;91.82;102711.63;5012124;28;20187;-70
2022/08/07 03:40:03;;;;;;;17.97;13.03;;;;;;;9.98;92.30;102712.72;5011920;28;20234;-70
2022/08/07 03:42:32;;;;;;;16.87;11.97;;;;;;;9.89;92.13;102704.56;5012392;28;20211;-70
2022/08/07 03:44:58;;;;;;;17.60;12.27;;;;;;;9.96;91.77;102711.78;5012366;28;20191;-70
2022/08/07 03:47:29;;;;;;;17.97;12.50;;;;;;;9.95;91.70;102712.56;4995808;28;20711;-69
2022/08/07 03:49:56;;;;;;;17.37;12.70;;;;;;;10.03;91.94;102713.81;5012014;28;20179;-71
2022/08/07 03:52:26;;;;;;;20.57;13.87;;;;;;;10.03;91.82;102714.72;5011939;28;20241;-71
2022/08/07 03:54:53;;;;;;;16.17;11.87;;;;;;;10.03;92.21;102719.84;5012094;28;20191;-70
2022/08/07 03:57:20;;;;;;;15.67;11.30;;;;;;;10.01;92.28;102723.13;5011731;28;20561;-70
2022/08/07 03:59:46;;;;;;;15.43;11.03;;;;;;;9.91;91.67;102721.75;5013267;28;20626;-70
2022/08/07 04:02:12;;;;;;;14.43;11.53;;;;;;;9.88;91.66;102724.16;5011693;28;20214;-69
2022/08/07 04:04:41;;;;;;;14.90;11.40;;;;;;;9.89;90.79;102722.47;5011971;28;20187;-69
2022/08/07 04:07:07;;;;;;;16.43;11.20;;;;;;;9.88;91.32;102723.28;5011565;28;20191;-70
2022/08/07 04:09:34;;;;;;;15.50;11.17;;;;;;;9.91;90.78;102728.56;5012014;28;20820;-71
2022/08/07 04:12:00;;;;;;;14.90;11.10;;;;;;;9.91;90.84;102718.31;5011682;28;20211;-70
2022/08/07 04:14:27;;;;;;;17.50;11.17;;;;;;;9.87;91.35;102724.09;5011660;28;20721;-71
2022/08/07 04:16:53;;;;;;;14.80;10.80;;;;;;;9.84;90.80;102726.47;5012554;28;20219;-70
2022/08/07 04:19:20;;;;;;;14.87;11.10;;;;;;;9.81;91.52;102727.19;5006653;28;20241;-71
2022/08/07 04:21:50;;;;;;;17.07;11.03;;;;;;;9.86;90.68;102735.97;4995767;28;20203;-70
2022/08/07 04:24:16;;;;;;;15.63;12.03;;;;;;;9.85;91.39;102734.22;5013076;28;20182;-71
2022/08/07 04:26:41;;;;;;;14.87;10.43;;;;;;;9.87;90.64;102729.19;5012973;28;20241;-70
2022/08/07 04:29:08;;;;;;;12.87;9.83;;;;;;;9.93;90.82;102732.97;4994395;28;20554;-70
2022/08/07 04:31:37;;;;;;;13.47;10.27;;;;;;;9.94;92.15;102732.16;4995038;28;20637;-71
2022/08/07 04:34:03;;;;;;;14.20;11.13;;;;;;;10.03;91.98;102741.97;5011662;28;20186;-70
2022/08/07 04:36:28;;;;;;;15.03;11.57;;;;;;;10.07;91.87;102742.28;5011148;28;20194;-70
2022/08/07 04:38:55;;;;;;;16.73;11.60;;;;;;;10.14;93.04;102746.03;5012566;28;20241;-70
2022/08/07 04:41:20;;;;;;;18.13;12.07;;;;;;;10.17;92.86;102746.16;5011990;28;20234;-70
2022/08/07 04:43:50;;;;;;;17.77;12.50;;;;;;;10.21;93.27;102746.41;5011205;28;20191;-70
2022/08/07 04:46:25;;;;;;;16.03;11.83;;;;;;;10.26;92.99;102744.06;5010517;28;20251;-71
2022/08/07 04:48:51;;;;;;;18.70;12.07;;;;;;;10.35;92.89;102745.44;5011151;28;20185;-71
2022/08/07 04:51:27;;;;;;;15.47;11.60;;;;;;;10.45;93.06;102749.31;5010863;28;20708;-70
2022/08/07 04:54:09;;;;;;;16.00;11.63;;;;;;;10.48;93.57;102741.81;5010895;28;20179;-70
2022/08/07 04:56:45;;;;;;;17.63;12.37;;;;;;;10.54;93.37;102750.69;5007385;28;20307;-70
2022/08/07 04:59:21;;;;;;;16.03;11.50;;;;;;;10.61;92.94;102749.31;5009570;28;20206;-70
2022/08/07 05:01:58;;;;;;;14.80;11.37;;;;;;;10.71;92.70;102752.41;4994500;28;20203;-71
2022/08/07 05:04:37;;;;;;;15.97;11.23;;;;;;;10.77;92.97;102755.25;5010675;28;20198;-71
2022/08/07 05:07:22;;;;;;;16.43;11.23;;;;;;;10.89;92.76;102755.88;5010707;28;20191;-71
2022/08/07 05:10:12;;;;;;;15.23;11.03;;;;;;;11.00;91.95;102749.56;5008492;28;20254;-71
2022/08/07 05:12:47;;;;;;;16.37;11.50;;;;;;;11.08;92.18;102758.50;5005503;28;20207;-70
2022/08/07 05:15:18;;;;;;;12.87;10.40;;;;;;;11.18;91.72;102759.81;5010176;28;20740;-71
2022/08/07 05:17:54;;;;;;;13.47;10.60;;;;;;;11.30;91.31;102756.13;5010188;28;20671;-70
2022/08/07 05:20:25;;;;;;;13.83;10.57;;;;;;;11.44;91.21;102761.91;5010374;28;20214;-71
2022/08/07 05:22:57;;;;;;;14.87;10.97;;;;;;;11.56;90.87;102754.81;5010401;28;20211;-70
2022/08/07 05:25:23;;;;;;;13.97;11.17;;;;;;;11.64;90.86;102756.03;5010287;28;20187;-68
2022/08/07 05:27:49;;;;;;;13.63;10.87;;;;;;;11.76;90.55;102757.47;5010162;28;20336;-69
2022/08/07 05:30:17;;;;;;;21.20;11.20;;;;;;;11.91;90.28;102760.75;4999586;28;20215;-71
2022/08/07 05:32:46;;;;;;;15.50;11.30;;;;;;;12.03;90.51;102758.72;4990714;28;20211;-71
2022/08/07 05:35:13;;;;;;;15.67;11.60;;;;;;;12.10;90.28;102755.63;5006880;28;20271;-71
2022/08/07 05:37:40;;;;;;;16.23;11.17;;;;;;;12.28;89.83;102764.13;5006845;28;20188;-71
2022/08/07 05:40:07;;;;;;;17.40;12.10;;;;;;;12.45;89.60;102762.28;5006929;28;20303;-71
2022/08/07 05:42:33;;;;;;;16.27;11.93;;;;;;;12.47;89.62;102758.94;4992171;28;20298;-71
2022/08/07 05:45:00;;;;;;;16.60;11.67;;;;;;;12.58;89.64;102755.13;4990746;28;20192;-70
2022/08/07 05:47:26;;;;;;;14.47;11.07;;;;;;;12.67;88.87;102752.94;5006750;28;20549;-70
2022/08/07 05:49:53;;;;;;;14.63;11.87;;;;;;;12.86;88.60;102750.31;5006641;28;20192;-70
2022/08/07 05:52:21;;;;;;;16.90;11.70;;;;;;;13.04;88.09;102751.91;5006727;28;20207;-71
2022/08/07 05:54:47;;;;;;;14.27;10.60;;;;;;;13.20;87.20;102750.00;5006938;28;20215;-70
2022/08/07 05:57:15;;;;;;;15.80;11.07;;;;;;;13.29;86.71;102747.78;5006513;28;20196;-71
2022/08/07 05:59:43;;;;;;;14.63;11.50;;;;;;;13.38;86.75;102742.09;5005711;28;20218;-70
2022/08/07 06:02:13;;;;;;;16.63;12.10;;;;;;;13.60;86.37;102740.44;5007372;28;20242;-70
2022/08/07 06:04:44;;;;;;;15.37;11.63;;;;;;;13.84;85.31;102738.75;5007011;28;20246;-72
2022/08/07 06:07:10;;;;;;;13.87;10.47;;;;;;;13.98;84.72;102737.56;5017391;28;20237;-70
2022/08/07 06:09:39;;;;;;;13.67;11.90;;;;;;;14.09;85.51;102735.38;5009867;28;20187;-71
2022/08/07 06:12:05;;;;;;;16.47;12.07;;;;;;;14.23;84.76;102735.03;5009621;28;20294;-71
2022/08/07 06:14:32;;;;;;;15.17;11.70;;;;;;;14.34;84.30;102731.16;5009648;28;20767;-71
2022/08/07 06:17:02;;;;;;;16.17;12.13;;;;;;;14.50;84.38;102736.00;5009459;28;20187;-71
2022/08/07 06:19:32;;;;;;;17.53;11.80;;;;;;;14.72;83.75;102735.00;5009311;28;20211;-71
2022/08/07 06:21:57;;;;;;;16.23;11.47;;;;;;;14.86;83.34;102732.03;5009353;28;20257;-72
2022/08/07 06:24:24;;;;;;;16.37;11.43;;;;;;;15.07;81.91;102731.84;5009405;28;20721;-71
2022/08/07 06:26:50;;;;;;;16.13;12.70;;;;;;;15.14;81.67;102736.41;5009100;28;20193;-71
2022/08/07 06:29:15;;;;;;;15.70;12.13;;;;;;;15.14;81.04;102737.25;5008947;28;20182;-71
2022/08/07 06:31:41;;;;;;;16.33;11.87;;;;;;;15.33;80.23;102746.47;5009195;28;20239;-70
2022/08/07 06:34:07;;;;;;;15.63;12.67;;;;;;;15.46;79.54;102739.16;5009150;28;20187;-70
2022/08/07 06:36:32;;;;;;;14.00;10.57;;;;;;;15.58;79.07;102738.63;5008994;28;20649;-71
2022/08/07 06:38:58;;;;;;;13.13;11.27;;;;;;;15.68;79.24;102741.53;5009038;28;20290;-70
2022/08/07 06:42:03;;;;;;;15.67;11.23;;;;;;;15.80;79.06;102733.25;5009013;28;20214;-71
2022/08/07 06:44:48;;;;;;;13.43;9.80;;;;;;;16.02;78.16;102735.63;5010199;28;20675;-70
2022/08/07 06:47:14;;;;;;;11.93;9.87;;;;;;;16.21;77.62;102736.16;5010089;28;20195;-70
2022/08/07 06:49:41;;;;;;;12.43;10.20;;;;;;;16.46;77.15;102729.94;5010283;28;20644;-70
2022/08/07 06:52:09;;;;;;;12.97;9.47;;;;;;;16.55;75.23;102738.81;5008786;28;20234;-71
2022/08/07 06:54:38;;;;;;;12.17;8.40;;;;;;;16.68;74.22;102737.41;5009102;28;20661;-71
2022/08/07 06:57:06;;;;;;;9.67;7.37;;;;;;;16.92;72.98;102732.84;5008878;28;20187;-71
2022/08/07 06:59:38;;;;;;;9.87;6.83;;;;;;;16.98;72.85;102735.56;5008863;28;20210;-71
2022/08/07 07:02:17;;;;;;;7.93;5.73;;;;;;;17.12;70.25;102729.88;4981652;28;20207;-70
2022/08/07 07:04:45;;;;;;;9.67;7.17;;;;;;;17.31;71.00;102731.19;5008548;28;20183;-70
2022/08/07 07:07:10;;;;;;;10.00;7.20;;;;;;;17.36;71.55;102733.00;5005794;28;20191;-70
2022/08/07 07:09:44;;;;;;;10.03;5.90;;;;;;;17.60;70.92;102735.31;5008249;28;20708;-69
2022/08/07 07:12:47;;;;;;;6.23;4.90;;;;;;;17.54;68.46;102730.00;5008582;28;20241;-71
2022/08/07 07:15:21;;;;;;;11.03;6.60;;;;;;;17.66;69.43;102731.13;5007991;28;20337;-70
2022/08/07 07:17:59;;;;;;;6.90;5.53;;;;;;;17.83;68.19;102728.88;5009448;28;20244;-69
2022/08/07 07:20:33;;;;;;;7.73;5.67;;;;;;;18.08;66.93;102736.28;5009775;28;20251;-71
2022/08/07 07:23:00;;;;;;;6.07;4.80;;;;;;;18.16;67.53;102721.75;5005574;28;20651;-69
2022/08/07 07:25:26;;;;;;;6.33;4.70;;;;;;;18.46;65.46;102724.91;4998818;28;20672;-70
2022/08/07 07:27:57;;;;;;;7.53;5.10;;;;;;;18.41;64.72;102722.25;5009632;28;20187;-71
2022/08/07 07:30:26;;;;;;;7.40;4.80;;;;;;;18.66;65.25;102721.81;5009187;28;20290;-71
2022/08/07 07:32:55;;;;;;;6.07;4.33;;;;;;;18.72;63.67;102723.63;5009050;28;20199;-71
2022/08/07 07:35:22;;;;;;;8.17;5.10;;;;;;;19.03;62.82;102720.69;5009557;28;20187;-71
2022/08/07 07:37:49;;;;;;;5.60;3.77;;;;;;;19.00;62.29;102728.41;5009447;28;20198;-71
2022/08/07 07:40:18;;;;;;;6.90;4.77;;;;;;;19.00;62.07;102723.22;5008099;28;20211;-71
2022/08/07 07:42:46;;;;;;;6.97;4.60;;;;;;;19.18;62.71;102714.00;5008108;28;20306;-70
2022/08/07 07:45:15;;;;;;;7.03;4.70;;;;;;;19.30;60.87;102715.91;5008158;28;20202;-71
2022/08/07 07:47:42;;;;;;;7.30;4.70;;;;;;;19.55;60.05;102705.88;5009126;28;20253;-71
2022/08/07 07:50:11;;;;;;;6.50;4.47;;;;;;;19.48;59.96;102709.22;5009539;28;20214;-71
2022/08/07 07:52:40;;;;;;;6.67;4.93;;;;;;;19.48;58.90;102708.38;5009449;28;20211;-72
2022/08/07 07:55:08;;;;;;;7.27;4.13;;;;;;;19.50;57.09;102715.34;5009549;28;20219;-70
2022/08/07 07:57:34;;;;;;;5.90;3.80;;;;;;;19.76;56.16;102713.06;5009310;28;20189;-72
2022/08/07 08:00:01;;;;;;;5.80;3.97;;;;;;;20.16;56.51;102699.66;5009342;28;20289;-71
2022/08/07 08:02:40;;;;;;;7.63;3.93;;;;;;;20.38;53.71;102697.28;5009251;28;20206;-71
2022/08/07 08:05:07;;;;;;;5.60;4.33;;;;;;;20.38;55.55;102699.00;5009475;28;20733;-71
2022/08/07 08:07:35;;;;;;;5.20;3.70;;;;;;;20.52;53.51;102692.19;5006540;28;20247;-71
2022/08/07 08:10:03;;;;;;;5.33;3.93;;;;;;;20.40;55.13;102698.16;5009344;28;20190;-70
2022/08/07 08:12:30;;;;;;;6.00;3.67;;;;;;;20.41;54.26;102683.41;5009312;28;20214;-72
2022/08/07 08:14:56;;;;;;;4.47;3.80;;;;;;;20.34;54.79;102694.63;5009462;28;20191;-71
2022/08/07 08:17:22;;;;;;;7.40;4.70;;;;;;;20.27;52.57;102693.69;5009249;28;20171;-71
2022/08/07 08:19:51;;;;;;;5.67;5.00;;;;;;;20.78;51.94;102681.09;4990210;28;20260;-69
2022/08/07 08:27:52;;;;;;;5.27;4.07;;;;;;;21.30;48.97;102677.13;5011286;28;20183;-71
2022/08/07 08:30:18;;;;;;;5.47;3.90;;;;;;;21.37;49.28;102679.75;5012780;28;20586;-70
2022/08/07 08:32:48;;;;;;;4.97;3.77;;;;;;;21.74;48.96;102679.06;5012571;28;20248;-71
2022/08/07 08:35:20;;;;;;;5.83;3.83;;;;;;;21.16;47.68;102678.78;5012724;28;20194;-71
2022/08/07 08:37:47;;;;;;;4.90;3.53;;;;;;;21.71;47.55;102683.41;5011058;28;20295;-71
2022/08/07 08:40:20;;;;;;;5.00;3.70;;;;;;;22.47;48.03;102680.06;5011155;28;20211;-71
2022/08/07 08:42:53;;;;;;;4.20;3.80;;;;;;;22.78;45.76;102680.97;5012599;28;20290;-71
2022/08/07 08:45:27;;;;;;;4.00;3.00;;;;;;;22.82;43.92;102667.88;5012363;28;20277;-71
2022/08/07 08:48:11;;;;;;;3.63;3.10;;;;;;;22.97;44.89;102667.84;5012184;28;20175;-71
2022/08/07 08:50:47;;;;;;;5.53;3.80;;;;;;;23.03;45.08;102667.84;5011154;28;20258;-71
2022/08/07 08:53:25;;;;;;;4.83;3.63;;;;;;;22.87;45.02;102670.47;5012771;28;20221;-72
2022/08/07 08:55:56;;;;;;;5.53;3.53;;;;;;;23.15;45.19;102665.19;5012581;28;20572;-71
2022/08/07 08:58:33;;;;;;;4.67;3.67;;;;;;;23.36;45.17;102659.94;5012212;28;20185;-72
2022/08/07 09:01:12;;;;;;;4.13;3.57;;;;;;;23.22;44.61;102666.94;5012105;28;20187;-71
2022/08/07 09:04:07;;;;;;;5.10;4.07;;;;;;;23.71;45.07;102662.38;5011051;28;20206;-71
2022/08/07 09:07:02;;;;;;;5.93;4.10;;;;;;;23.34;44.66;102659.03;4998905;28;20808;-69
2022/08/07 09:09:53;;;;;;;3.87;3.37;;;;;;;24.03;43.34;102656.09;5004548;28;20203;-72
2022/08/07 09:12:18;;;;;;;3.97;3.60;;;;;;;24.30;44.33;102663.75;4991171;28;20295;-72
2022/08/07 09:15:13;;;;;;;5.43;3.80;;;;;;;24.28;43.16;102662.03;4983777;28;20274;-70
2022/08/07 09:18:19;;;;;;;5.40;3.37;;;;;;;23.44;43.87;102665.97;4987179;28;20915;-72
2022/08/07 09:21:02;;;;;;;3.97;3.40;;;;;;;23.60;44.59;102651.06;4992440;28;20250;-72
2022/08/07 09:24:06;;;;;;;6.43;3.77;;;;;;;24.16;42.90;102647.25;4992292;28;20192;-71
2022/08/07 09:26:53;;;;;;;5.60;3.92;;;;;;;24.64;41.60;102643.41;4992103;28;20172;-72
2022/08/07 09:29:36;;;;;;;4.75;4.25;;;;;;;24.39;41.11;102647.06;4992886;28;20168;-71
2022/08/07 09:32:05;;;;;;;5.47;3.78;;;;;;;24.50;41.56;102645.25;4992253;28;20203;-72
2022/08/07 09:34:37;;;;;;;4.27;3.77;;;;;;;24.05;42.20;102640.38;4992360;28;20191;-73
2022/08/07 09:37:24;;;;;;;5.75;3.42;;;;;;;24.84;41.87;102637.06;4995046;28;20188;-74
2022/08/07 09:40:03;;;;;;;5.50;4.07;;;;;;;25.22;40.96;102639.25;5010410;28;20713;-72
2022/08/07 09:42:36;;;;;;;4.28;3.85;;;;;;;25.26;39.85;102638.31;5011625;28;20221;-74
2022/08/07 09:45:14;;;;;;;4.43;3.72;;;;;;;25.36;39.05;102633.00;5009642;28;20276;-69
2022/08/07 09:48:17;;;;;;;4.43;3.83;;;;;;;25.56;39.51;102623.09;4971150;28;20239;-73
2022/08/07 09:51:02;;;;;;;4.75;3.97;;;;;;;26.08;38.29;102625.84;4997903;28;20183;-73
2022/08/07 09:53:33;;;;;;;4.45;4.05;;;;;;;25.44;37.91;102631.13;5009933;28;20687;-73
2022/08/07 09:56:25;;;;;;;5.07;3.97;;;;;;;25.93;38.98;102620.84;4966855;28;20177;-72
2022/08/07 09:59:02;;;;;;;7.28;4.10;;;;;;;25.41;39.90;102627.69;4970881;28;20218;-71
2022/08/07 10:01:37;;;;;;;5.18;4.30;;;;;;;26.40;40.23;102618.31;4972098;28;20760;-71
2022/08/07 10:04:23;;;;;;;4.30;3.90;;;;;;;27.18;37.94;102609.84;5002336;28;20229;-71
2022/08/07 10:06:56;;;;;;;4.55;4.05;;;;;;;26.23;39.27;102612.47;4998864;28;20202;-72
2022/08/07 10:09:39;;;;;;;4.57;3.88;;;;;;;26.42;38.21;102596.34;4983899;28;20230;-71
2022/08/07 10:12:33;;;;;;;4.40;4.00;;;;;;;26.31;38.55;102600.94;4971696;28;20207;-72
2022/08/07 10:15:13;;;;;;;4.78;4.28;;;;;;;26.10;39.91;102605.69;4970337;28;20184;-74
2022/08/07 10:17:51;;;;;;;4.10;3.67;;;;;;;26.86;37.95;102598.19;4971308;28;20199;-73
2022/08/07 10:20:41;;;;;;;4.07;3.70;;;;;;;26.88;37.52;102593.75;4993733;28;20207;-72
2022/08/07 10:23:28;;;;;;;5.75;3.83;;;;;;;27.24;35.71;102593.91;4992698;28;20214;-70
2022/08/07 10:26:23;;;;;;;4.80;3.65;;;;;;;27.21;35.24;102593.97;4982701;28;20544;-72
2022/08/07 10:29:09;;;;;;;4.88;3.47;;;;;;;25.97;36.58;102588.41;4990646;28;20562;-74
2022/08/07 10:31:38;;;;;;;5.60;3.75;;;;;;;26.84;37.73;102590.31;4990715;28;20211;-72
2022/08/07 10:34:36;;;;;;;4.63;3.60;;;;;;;27.09;36.30;102582.81;4990703;28;20191;-72
2022/08/07 10:37:34;;;;;;;4.72;4.05;;;;;;;26.03;36.02;102576.03;4990605;28;20183;-72
2022/08/07 10:40:32;;;;;;;4.65;3.80;;;;;;;25.99;38.08;102582.22;4991078;28;20200;-73
2022/08/07 10:43:08;;;;;;;5.93;4.03;;;;;;;25.77;37.69;102578.16;5010354;28;20782;-71
2022/08/07 10:45:38;;;;;;;5.63;3.78;;;;;;;25.20;37.75;102573.72;4989536;28;20179;-71
2022/08/07 10:48:22;;;;;;;6.65;4.45;;;;;;;25.78;37.88;102565.91;5009822;28;20640;-73
2022/08/07 10:50:58;;;;;;;5.70;3.80;;;;;;;26.92;36.76;102561.22;5009221;28;20641;-74
2022/08/07 10:53:40;;;;;;;3.92;3.53;;;;;;;27.17;36.65;102551.94;5009308;28;20194;-74
2022/08/07 10:56:35;;;;;;;5.85;3.80;;;;;;;27.66;36.20;102547.31;4990370;28;20183;-74
2022/08/07 10:59:19;;;;;;;5.07;4.13;;;;;;;27.50;35.77;102557.34;4989068;28;20697;-71
2022/08/07 11:02:04;;;;;;;4.55;4.18;;;;;;;27.16;35.20;102543.16;4990206;28;20262;-72
2022/08/07 11:04:56;;;;;;;5.00;4.00;;;;;;;27.71;35.22;102542.78;4990381;28;20657;-74
2022/08/07 11:07:25;;;;;;;5.60;3.85;;;;;;;27.55;35.13;102538.81;4987564;28;20653;-74
2022/08/07 11:09:57;;;;;;;4.05;3.00;;;;;;;27.89;34.14;102540.63;4988806;28;20196;-72
2022/08/07 11:12:36;;;;;;;3.95;3.65;;;;;;;27.99;34.84;102531.59;4982077;28;20211;-74
2022/08/07 11:15:16;;;;;;;4.18;3.22;;;;;;;28.17;33.89;102528.47;4972985;28;20195;-72
2022/08/07 11:17:51;;;;;;;4.10;3.42;;;;;;;28.23;33.21;102532.72;4988236;28;20207;-71
2022/08/07 11:20:23;;;;;;;3.80;3.40;;;;;;;28.51;33.15;102534.59;4979531;28;20295;-74
2022/08/07 11:23:11;;;;;;;5.30;3.58;;;;;;;28.75;33.91;102531.28;4988799;28;20693;-74
2022/08/07 11:25:41;;;;;;;3.75;3.10;;;;;;;28.76;32.31;102529.50;4983182;28;20198;-74
2022/08/07 11:28:15;;;;;;;3.60;3.08;;;;;;;28.74;33.80;102524.25;4988304;28;20533;-73
2022/08/07 11:30:42;;;;;;;3.75;3.42;;;;;;;28.66;32.32;102521.00;4990344;28;20527;-72
2022/08/07 11:33:45;;;;;;;3.70;3.35;;;;;;;28.49;32.47;102525.88;4993477;28;20617;-71
2022/08/07 11:36:29;;;;;;;5.57;5.07;;;;;;;28.72;33.43;102518.19;5008192;28;20237;-73
2022/08/07 11:39:04;;;;;;;4.35;3.95;;;;;;;28.21;32.93;102514.31;4993041;28;20187;-70
2022/08/07 11:41:41;;;;;;;4.35;3.95;;;;;;;28.37;33.75;102514.78;4989211;28;20226;-71
2022/08/07 11:44:30;;;;;;;6.90;4.20;;;;;;;28.89;31.52;102515.91;5005144;28;20657;-73